createdAt,value
2023-04-19T00:02:06.621Z,8.30
2023-04-19T00:04:34.101Z,8.30
2023-04-19T00:07:03.369Z,8.30
2023-04-19T00:09:30.452Z,8.30
2023-04-19T00:11:57.497Z,8.30
2023-04-19T00:14:24.566Z,8.30
2023-04-19T00:16:51.707Z,8.30
2023-04-19T00:19:18.776Z,8.30
2023-04-19T00:21:45.867Z,8.30
2023-04-19T00:24:13.122Z,8.30
2023-04-19T00:26:40.313Z,8.30
2023-04-19T00:29:07.400Z,8.30
2023-04-19T00:31:34.437Z,8.20
2023-04-19T00:34:01.450Z,8.20
2023-04-19T00:36:28.518Z,8.20
2023-04-19T00:38:55.580Z,8.20
2023-04-19T00:41:22.674Z,8.20
2023-04-19T00:43:49.729Z,8.20
2023-04-19T00:46:16.903Z,8.20
2023-04-19T00:48:45.795Z,8.20
2023-04-19T00:51:12.879Z,8.20
2023-04-19T00:53:39.915Z,8.20
2023-04-19T00:56:06.984Z,8.20
2023-04-19T00:58:34.111Z,8.10
2023-04-19T01:01:01.304Z,8.10
2023-04-19T01:03:29.261Z,8.10
2023-04-19T01:05:57.011Z,8.10
2023-04-19T01:08:24.148Z,8.10
2023-04-19T01:10:54.159Z,8.00
2023-04-19T01:13:21.217Z,8.00
2023-04-19T01:15:48.889Z,8.10
2023-04-19T01:18:15.962Z,8.00
2023-04-19T01:20:43.379Z,8.00
2023-04-19T01:23:11.946Z,8.00
2023-04-19T01:25:39.199Z,8.00
2023-04-19T01:28:06.504Z,8.00
2023-04-19T01:30:34.258Z,8.00
2023-04-19T01:33:01.467Z,8.00
2023-04-19T01:35:30.072Z,8.00
2023-04-19T01:37:57.186Z,8.00
2023-04-19T01:40:24.802Z,8.00
2023-04-19T01:42:51.964Z,8.00
2023-04-19T01:45:19.034Z,8.00
2023-04-19T01:47:46.171Z,8.10
2023-04-19T01:50:13.307Z,8.10
2023-04-19T01:52:40.453Z,8.10
2023-04-19T01:55:07.700Z,8.10
2023-04-19T01:57:35.835Z,8.10
2023-04-19T02:00:03.126Z,8.00
2023-04-19T02:02:30.325Z,8.10
2023-04-19T02:04:57.530Z,8.10
2023-04-19T02:07:24.631Z,8.10
2023-04-19T02:09:51.651Z,8.10
2023-04-19T02:12:19.983Z,8.10
2023-04-19T02:14:47.072Z,8.10
2023-04-19T02:17:14.261Z,8.10
2023-04-19T02:19:41.395Z,8.10
2023-04-19T02:22:08.492Z,8.10
2023-04-19T02:24:35.555Z,8.00
2023-04-19T02:27:02.734Z,8.00
2023-04-19T02:29:29.856Z,8.10
2023-04-19T02:31:57.980Z,8.00
2023-04-19T02:34:25.107Z,8.00
2023-04-19T02:36:52.879Z,8.10
2023-04-19T02:39:19.956Z,8.00
2023-04-19T02:41:47.079Z,8.00
2023-04-19T02:44:14.402Z,8.10
2023-04-19T02:46:50.425Z,8.00
2023-04-19T02:49:17.702Z,8.00
2023-04-19T02:51:45.052Z,8.00
2023-04-19T02:54:14.011Z,8.00
2023-04-19T02:56:44.483Z,8.00
2023-04-19T02:59:11.670Z,8.00
2023-04-19T03:01:38.835Z,8.00
2023-04-19T03:04:07.421Z,8.00
2023-04-19T03:06:34.569Z,8.00
2023-04-19T03:09:02.405Z,8.00
2023-04-19T03:11:29.464Z,8.00
2023-04-19T03:13:56.502Z,8.00
2023-04-19T03:16:23.593Z,8.00
2023-04-19T03:18:50.967Z,8.00
2023-04-19T03:21:22.348Z,8.00
2023-04-19T03:23:54.018Z,8.00
2023-04-19T03:26:21.330Z,7.90
2023-04-19T03:28:52.220Z,8.00
2023-04-19T03:31:19.242Z,7.90
2023-04-19T03:33:49.550Z,7.90
2023-04-19T03:36:16.707Z,7.90
2023-04-19T03:38:46.121Z,7.90
2023-04-19T03:41:18.126Z,7.90
2023-04-19T03:43:45.712Z,7.90
2023-04-19T03:46:12.830Z,7.90
2023-04-19T03:48:39.910Z,7.90
2023-04-19T03:51:07.024Z,7.90
2023-04-19T03:53:35.035Z,7.90
2023-04-19T03:56:02.229Z,7.90
2023-04-19T03:58:29.604Z,7.90
2023-04-19T04:01:03.165Z,7.90
2023-04-19T04:03:31.155Z,7.90
2023-04-19T04:05:58.566Z,7.90
2023-04-19T04:08:25.960Z,7.90
2023-04-19T04:10:54.402Z,7.90
2023-04-19T04:13:21.705Z,7.90
2023-04-19T04:16:00.661Z,7.90
2023-04-19T04:18:28.585Z,7.90
2023-04-19T04:20:55.898Z,7.90
2023-04-19T04:23:25.151Z,7.90
2023-04-19T04:25:57.977Z,7.90
2023-04-19T04:28:26.782Z,7.90
2023-04-19T04:30:57.365Z,7.90
2023-04-19T04:33:26.375Z,7.90
2023-04-19T04:35:53.890Z,7.90
2023-04-19T04:38:25.085Z,7.90
2023-04-19T04:40:53.689Z,7.90
2023-04-19T04:43:21.800Z,7.90
2023-04-19T04:45:49.042Z,7.80
2023-04-19T04:48:19.355Z,7.90
2023-04-19T04:50:46.473Z,7.80
2023-04-19T04:53:13.852Z,7.80
2023-04-19T04:55:43.480Z,7.80
2023-04-19T04:58:12.588Z,7.80
2023-04-19T05:00:55.198Z,7.80
2023-04-19T05:03:23.413Z,7.80
2023-04-19T05:05:55.392Z,7.80
2023-04-19T05:08:25.316Z,7.80
2023-04-19T05:10:52.785Z,7.80
2023-04-19T05:13:22.566Z,7.80
2023-04-19T05:15:50.601Z,7.80
2023-04-19T05:18:17.984Z,7.80
2023-04-19T05:20:46.745Z,7.80
2023-04-19T05:23:21.291Z,7.80
2023-04-19T05:25:50.330Z,7.80
2023-04-19T05:28:18.479Z,7.80
2023-04-19T05:30:58.889Z,7.80
2023-04-19T05:33:30.966Z,7.80
2023-04-19T05:35:58.469Z,7.80
2023-04-19T05:38:25.731Z,7.80
2023-04-19T05:40:56.808Z,7.80
2023-04-19T05:43:23.961Z,7.80
2023-04-19T05:45:51.164Z,7.80
2023-04-19T05:48:19.430Z,7.80
2023-04-19T05:50:59.574Z,7.80
2023-04-19T05:53:42.101Z,7.80
2023-04-19T05:56:09.227Z,7.80
2023-04-19T05:58:36.895Z,7.80
2023-04-19T06:01:04.622Z,7.80
2023-04-19T06:03:33.486Z,7.80
2023-04-19T06:06:03.700Z,7.90
2023-04-19T06:08:31.573Z,7.90
2023-04-19T06:11:02.500Z,7.80
2023-04-19T06:13:35.855Z,7.90
2023-04-19T06:16:03.381Z,7.90
2023-04-19T06:18:30.755Z,7.90
2023-04-19T06:20:57.843Z,7.90
2023-04-19T06:23:25.567Z,7.80
2023-04-19T06:25:52.715Z,7.90
2023-04-19T06:28:19.765Z,7.90
2023-04-19T06:30:46.910Z,7.90
2023-04-19T06:33:14.096Z,7.80
2023-04-19T06:35:41.256Z,7.80
2023-04-19T06:38:08.476Z,7.90
2023-04-19T06:40:37.489Z,7.80
2023-04-19T06:43:05.891Z,7.80
2023-04-19T06:45:33.392Z,7.80
2023-04-19T06:48:00.882Z,7.80
2023-04-19T06:50:28.780Z,7.80
2023-04-19T06:52:55.903Z,7.80
2023-04-19T06:55:50.199Z,7.90
2023-04-19T06:58:17.230Z,7.90
2023-04-19T07:00:44.310Z,7.90
2023-04-19T07:03:13.741Z,7.90
2023-04-19T07:05:41.556Z,7.90
2023-04-19T07:08:10.091Z,7.90
2023-04-19T07:10:37.121Z,8.00
2023-04-19T07:13:05.340Z,7.90
2023-04-19T07:15:32.523Z,7.90
2023-04-19T07:17:59.648Z,8.00
2023-04-19T07:20:27.116Z,8.00
2023-04-19T07:22:54.204Z,8.00
2023-04-19T07:25:21.374Z,8.00
2023-04-19T07:27:48.402Z,8.10
2023-04-19T07:30:15.525Z,8.10
2023-04-19T07:32:42.819Z,8.10
2023-04-19T07:35:09.986Z,8.10
2023-04-19T07:37:37.024Z,8.20
2023-04-19T07:40:05.510Z,8.20
2023-04-19T07:42:32.597Z,8.30
2023-04-19T07:45:00.207Z,8.40
2023-04-19T07:47:27.314Z,8.40
2023-04-19T07:49:55.929Z,8.50
2023-04-19T07:52:23.009Z,8.60
2023-04-19T07:54:50.630Z,8.70
2023-04-19T07:57:17.817Z,8.80
2023-04-19T07:59:45.964Z,8.80
2023-04-19T08:02:13.231Z,8.80
2023-04-19T08:04:40.741Z,8.80
2023-04-19T08:07:09.387Z,8.80
2023-04-19T08:09:37.882Z,8.80
2023-04-19T08:12:05.059Z,8.70
2023-04-19T08:14:40.816Z,8.70
2023-04-19T08:19:46.627Z,8.70
2023-04-19T08:22:13.882Z,8.70
2023-04-19T08:24:40.968Z,8.70
2023-04-19T08:27:08.689Z,8.80
2023-04-19T08:29:36.018Z,8.80
2023-04-19T08:32:27.310Z,8.80
2023-04-19T08:34:54.664Z,8.90
2023-04-19T08:37:22.099Z,8.90
2023-04-19T08:39:49.263Z,8.90
2023-04-19T08:42:33.075Z,9.00
2023-04-19T08:45:31.652Z,9.00
2023-04-19T08:51:38.038Z,9.10
2023-04-19T08:54:36.380Z,9.20
2023-04-19T08:57:40.283Z,9.20
2023-04-19T09:00:09.200Z,9.20
2023-04-19T09:02:59.488Z,9.20
2023-04-19T09:05:26.972Z,9.20
2023-04-19T09:07:56.342Z,9.30
2023-04-19T09:10:25.553Z,9.30
2023-04-19T09:13:16.319Z,9.30
2023-04-19T09:15:44.681Z,9.40
2023-04-19T09:18:33.189Z,9.40
2023-04-19T09:21:02.934Z,9.50
2023-04-19T09:23:30.194Z,9.50
2023-04-19T09:26:21.985Z,9.50
2023-04-19T09:28:58.012Z,9.50
2023-04-19T09:31:43.505Z,9.60
2023-04-19T09:34:59.700Z,9.60
2023-04-19T09:37:51.366Z,9.70
2023-04-19T09:40:23.787Z,9.70
2023-04-19T09:48:00.496Z,10.00
2023-04-19T09:50:27.750Z,10.00
2023-04-19T09:52:54.942Z,10.10
2023-04-19T09:55:27.774Z,10.10
2023-04-19T09:57:56.270Z,10.10
2023-04-19T10:00:23.544Z,10.10
2023-04-19T10:02:58.302Z,10.10
2023-04-19T10:05:26.423Z,10.20
2023-04-19T10:07:59.264Z,10.20
2023-04-19T10:10:41.248Z,10.30
2023-04-19T10:15:52.514Z,10.40
2023-04-19T10:18:22.557Z,10.50
2023-04-19T10:21:01.986Z,10.60
2023-04-19T10:23:29.321Z,10.60
2023-04-19T10:25:57.984Z,10.60
2023-04-19T10:28:25.404Z,10.50
2023-04-19T10:30:53.073Z,10.40
2023-04-19T10:33:27.211Z,10.40
2023-04-19T10:36:00.811Z,10.30
2023-04-19T10:38:41.566Z,10.30
2023-04-19T10:41:14.501Z,10.20
2023-04-19T10:43:48.104Z,10.20
2023-04-19T10:46:15.469Z,10.10
2023-04-19T10:48:58.591Z,10.10
2023-04-19T10:51:29.331Z,10.10
2023-04-19T10:53:57.566Z,10.10
2023-04-19T10:56:34.160Z,10.10
2023-04-19T10:59:01.553Z,10.00
2023-04-19T11:01:40.979Z,10.00
2023-04-19T11:04:08.325Z,10.00
2023-04-19T11:06:35.976Z,9.90
2023-04-19T11:09:05.534Z,9.90
2023-04-19T11:11:36.015Z,9.90
2023-04-19T11:14:03.378Z,10.00
2023-04-19T11:16:44.465Z,10.00
2023-04-19T11:19:19.444Z,10.00
2023-04-19T11:21:46.932Z,10.00
2023-04-19T11:24:16.235Z,10.10
2023-04-19T11:26:44.105Z,10.10
2023-04-19T11:29:11.569Z,10.00
2023-04-19T11:31:38.894Z,10.00
2023-04-19T11:34:06.280Z,10.00
2023-04-19T11:36:36.651Z,10.00
2023-04-19T11:39:06.891Z,10.00
2023-04-19T11:41:37.754Z,10.00
2023-04-19T11:44:04.851Z,9.90
2023-04-19T11:46:32.156Z,9.90
2023-04-19T11:48:59.409Z,9.80
2023-04-19T11:51:26.990Z,9.70
2023-04-19T11:53:54.085Z,9.60
2023-04-19T11:56:21.329Z,9.50
2023-04-19T11:58:48.878Z,9.50
2023-04-19T12:01:16.808Z,9.40
2023-04-19T12:03:47.947Z,9.30
2023-04-19T12:06:15.977Z,9.30
2023-04-19T12:08:49.863Z,9.30
2023-04-19T12:11:18.788Z,9.30
2023-04-19T12:13:46.139Z,9.30
2023-04-19T12:16:13.298Z,9.20
2023-04-19T12:18:48.362Z,9.30
2023-04-19T12:21:28.031Z,9.30
2023-04-19T12:23:56.030Z,9.30
2023-04-19T12:26:24.533Z,9.30
2023-04-19T12:28:51.633Z,9.30
2023-04-19T12:31:20.904Z,9.30
2023-04-19T12:33:48.458Z,9.20
2023-04-19T12:36:15.594Z,9.30
2023-04-19T12:38:42.796Z,9.20
2023-04-19T12:41:09.874Z,9.20
2023-04-19T12:43:37.122Z,9.20
2023-04-19T12:46:07.154Z,9.10
2023-04-19T12:48:34.411Z,9.10
2023-04-19T12:51:01.612Z,9.10
2023-04-19T12:53:28.794Z,9.10
2023-04-19T12:55:56.032Z,9.00
2023-04-19T12:58:23.165Z,9.00
2023-04-19T13:00:50.495Z,9.10
2023-04-19T13:03:17.712Z,9.10
2023-04-19T13:05:44.981Z,9.10
2023-04-19T13:08:12.130Z,9.00
2023-04-19T13:10:39.252Z,9.00
2023-04-19T13:13:06.401Z,9.00
2023-04-19T13:15:33.581Z,8.90
2023-04-19T13:18:01.102Z,8.90
2023-04-19T13:20:29.106Z,8.80
2023-04-19T13:22:56.283Z,8.80
2023-04-19T13:25:23.510Z,8.80
2023-04-19T13:27:51.611Z,8.80
2023-04-19T13:30:18.785Z,8.80
2023-04-19T13:32:45.949Z,8.80
2023-04-19T13:35:13.238Z,8.80
2023-04-19T13:37:42.300Z,8.80
2023-04-19T13:40:18.673Z,8.80
2023-04-19T13:42:46.782Z,8.80
2023-04-19T13:45:13.962Z,8.80
2023-04-19T13:47:41.333Z,8.80
2023-04-19T13:50:08.732Z,8.70
2023-04-19T13:52:36.240Z,8.70
2023-04-19T13:55:03.612Z,8.60
2023-04-19T13:57:30.806Z,8.60
2023-04-19T13:59:57.948Z,8.50
2023-04-19T14:02:25.145Z,8.50
2023-04-19T14:04:52.308Z,8.50
2023-04-19T14:07:19.496Z,8.50
2023-04-19T14:09:46.644Z,8.50
2023-04-19T14:12:13.744Z,8.50
2023-04-19T14:14:40.818Z,8.40
2023-04-19T14:17:30.127Z,8.20
2023-04-19T14:19:57.310Z,8.20
2023-04-19T14:22:24.464Z,8.10
2023-04-19T14:24:51.637Z,8.10
2023-04-19T14:27:19.265Z,8.00
2023-04-19T14:29:46.485Z,7.90
2023-04-19T14:32:25.206Z,7.90
2023-04-19T14:34:53.676Z,7.90
2023-04-19T14:37:22.067Z,7.80
2023-04-19T14:39:49.179Z,7.80
2023-04-19T14:42:16.328Z,7.60
2023-04-19T14:44:43.862Z,7.40
2023-04-19T14:47:11.222Z,7.20
2023-04-19T14:49:38.298Z,7.10
2023-04-19T14:52:05.432Z,7.00
2023-04-19T14:54:32.582Z,6.90
2023-04-19T14:56:59.939Z,6.80
2023-04-19T14:59:58.902Z,6.80
2023-04-19T15:02:26.257Z,6.70
2023-04-19T15:04:53.953Z,6.70
2023-04-19T15:07:24.446Z,6.70
2023-04-19T15:09:51.623Z,6.60
2023-04-19T15:12:18.667Z,6.50
2023-04-19T15:14:47.927Z,6.40
2023-04-19T15:17:15.032Z,6.40
2023-04-19T15:19:42.128Z,6.30
2023-04-19T15:22:09.393Z,6.30
2023-04-19T15:24:36.477Z,6.20
2023-04-19T15:27:04.039Z,6.20
2023-04-19T15:29:34.866Z,6.10
2023-04-19T15:32:02.805Z,6.10
2023-04-19T15:34:29.887Z,6.10
2023-04-19T15:36:57.428Z,6.00
2023-04-19T15:39:24.855Z,6.00
2023-04-19T15:41:51.929Z,6.00
2023-04-19T15:44:19.047Z,6.00
2023-04-19T15:46:46.068Z,6.00
2023-04-19T15:49:13.160Z,6.00
2023-04-19T15:51:40.552Z,6.00
2023-04-19T15:54:07.575Z,6.00
2023-04-19T15:56:34.691Z,6.00
2023-04-19T15:59:02.034Z,5.90
2023-04-19T16:01:29.258Z,5.90
2023-04-19T16:03:56.677Z,5.90
2023-04-19T16:06:23.880Z,5.90
2023-04-19T16:08:51.018Z,5.90
2023-04-19T16:11:18.177Z,5.90
2023-04-19T16:13:45.441Z,6.00
2023-04-19T16:16:12.481Z,6.00
2023-04-19T16:18:41.617Z,5.90
2023-04-19T16:21:10.503Z,5.80
2023-04-19T16:24:26.034Z,5.80
2023-04-19T16:26:53.118Z,5.70
2023-04-19T16:29:20.222Z,5.70
2023-04-19T16:31:48.588Z,5.70
2023-04-19T16:34:18.967Z,5.70
2023-04-19T16:36:46.086Z,5.70
2023-04-19T16:39:13.151Z,5.60
2023-04-19T16:41:40.375Z,5.60
2023-04-19T16:44:07.469Z,5.50
2023-04-19T16:46:34.661Z,5.50
2023-04-19T16:49:01.932Z,5.50
2023-04-19T16:51:29.107Z,5.40
2023-04-19T16:53:56.334Z,5.40
2023-04-19T16:56:24.216Z,5.40
2023-04-19T16:58:51.691Z,5.30
2023-04-19T17:01:18.895Z,5.30
2023-04-19T17:03:46.586Z,5.30
2023-04-19T17:06:13.899Z,5.20
2023-04-19T17:08:41.186Z,5.20
2023-04-19T17:11:08.465Z,5.10
2023-04-19T17:13:35.904Z,5.10
2023-04-19T17:16:03.098Z,5.10
2023-04-19T17:18:30.353Z,5.20
2023-04-19T17:20:58.347Z,5.20
2023-04-19T17:23:25.455Z,5.20
2023-04-19T17:25:54.580Z,5.20
2023-04-19T17:28:21.659Z,5.20
2023-04-19T17:30:48.922Z,5.10
2023-04-19T17:33:16.060Z,5.10
2023-04-19T17:35:43.190Z,5.10
2023-04-19T17:38:11.444Z,5.10
2023-04-19T17:40:38.556Z,5.10
2023-04-19T17:43:05.961Z,5.10
2023-04-19T17:45:33.122Z,5.10
2023-04-19T17:48:01.950Z,5.10
2023-04-19T17:50:29.986Z,5.10
2023-04-19T17:52:57.078Z,5.20
2023-04-19T17:55:25.442Z,5.20
2023-04-19T17:57:52.595Z,5.20
2023-04-19T18:00:19.886Z,5.20
2023-04-19T18:02:48.623Z,5.20
2023-04-19T18:05:15.826Z,5.20
2023-04-19T18:07:42.907Z,5.10
2023-04-19T18:10:10.123Z,5.20
2023-04-19T18:12:37.233Z,5.10
2023-04-19T18:15:06.110Z,5.20
2023-04-19T18:17:33.396Z,5.20
2023-04-19T18:20:01.983Z,5.10
2023-04-19T18:22:29.132Z,5.10
2023-04-19T18:24:56.576Z,5.10
2023-04-19T18:27:23.621Z,5.10
2023-04-19T18:29:51.827Z,5.00
2023-04-19T18:32:19.205Z,5.00
2023-04-19T18:34:47.360Z,5.00
2023-04-19T18:37:14.954Z,5.00
2023-04-19T18:39:42.233Z,5.00
2023-04-19T18:42:09.292Z,5.00
2023-04-19T18:44:53.036Z,5.00
2023-04-19T18:47:21.338Z,5.00
2023-04-19T18:49:59.731Z,5.00
2023-04-19T18:52:31.425Z,5.00
2023-04-19T18:54:58.819Z,5.00
2023-04-19T18:57:27.352Z,5.00
2023-04-19T18:59:58.253Z,5.00
2023-04-19T19:02:27.082Z,5.00
2023-04-19T19:04:58.441Z,5.00
2023-04-19T19:10:01.716Z,5.00
2023-04-19T19:12:29.596Z,5.00
2023-04-19T19:14:56.773Z,5.00
2023-04-19T19:17:27.875Z,5.00
2023-04-19T19:19:55.514Z,5.00
2023-04-19T19:22:28.472Z,5.00
2023-04-19T19:24:56.722Z,5.00
2023-04-19T19:27:24.065Z,5.00
2023-04-19T19:29:51.160Z,5.00
2023-04-19T19:32:19.287Z,5.00
2023-04-19T19:34:55.406Z,5.00
2023-04-19T19:37:23.403Z,5.00
2023-04-19T19:39:56.228Z,5.00
2023-04-19T19:42:23.911Z,5.00
2023-04-19T19:44:54.992Z,5.00
2023-04-19T19:47:24.046Z,4.90
2023-04-19T19:50:33.621Z,4.90
2023-04-19T19:52:38.402Z,4.90
2023-04-19T19:55:05.888Z,4.90
2023-04-19T20:02:53.969Z,5.00
2023-04-19T20:05:24.096Z,4.90
2023-04-19T20:10:21.618Z,4.90
2023-04-19T20:12:48.749Z,4.90
2023-04-19T20:15:16.116Z,4.90
2023-04-19T20:17:43.784Z,4.90
2023-04-19T20:20:11.340Z,4.90
2023-04-19T20:22:38.674Z,4.90
2023-04-19T20:25:06.551Z,4.90
2023-04-19T20:27:33.781Z,5.00
2023-04-19T20:30:00.964Z,5.00
2023-04-19T20:32:28.346Z,5.00
2023-04-19T20:34:55.526Z,5.00
2023-04-19T20:37:22.666Z,5.00
2023-04-19T20:39:49.842Z,4.90
2023-04-19T20:42:17.253Z,5.00
2023-04-19T20:44:44.501Z,5.00
2023-04-19T20:47:13.180Z,5.00
2023-04-19T20:49:40.771Z,4.90
2023-04-19T20:52:07.917Z,5.00
2023-04-19T20:54:36.514Z,4.90
2023-04-19T20:57:04.574Z,4.90
2023-04-19T20:59:31.865Z,5.00
2023-04-19T21:01:59.643Z,5.00
2023-04-19T21:04:27.226Z,5.00
2023-04-19T21:06:54.443Z,5.00
2023-04-19T21:09:21.525Z,5.00
2023-04-19T21:11:48.653Z,4.90
2023-04-19T21:14:15.817Z,5.00
2023-04-19T21:16:43.026Z,5.00
2023-04-19T21:19:10.110Z,5.00
2023-04-19T21:21:37.170Z,5.00
2023-04-19T21:24:04.433Z,5.00
2023-04-19T21:26:31.542Z,5.00
2023-04-19T21:28:58.648Z,5.00
2023-04-19T21:31:25.887Z,4.90
2023-04-19T21:33:52.975Z,5.00
2023-04-19T21:36:20.552Z,4.90
2023-04-19T21:38:47.706Z,4.90
2023-04-19T21:41:14.921Z,4.90
2023-04-19T21:43:41.997Z,4.90
2023-04-19T21:46:09.161Z,4.90
2023-04-19T21:48:36.308Z,4.90
2023-04-19T21:51:04.074Z,4.90
2023-04-19T21:53:31.336Z,4.90
2023-04-19T21:55:58.412Z,4.90
2023-04-19T21:58:25.527Z,4.90
2023-04-19T22:00:53.644Z,4.90
2023-04-19T22:03:21.074Z,4.80
2023-04-19T22:05:48.196Z,4.90
2023-04-19T22:08:17.897Z,4.90
2023-04-19T22:10:46.287Z,4.90
2023-04-19T22:13:13.905Z,4.90
2023-04-19T22:15:41.101Z,4.90
2023-04-19T22:18:08.663Z,4.90
2023-04-19T22:20:35.818Z,4.90
2023-04-19T22:23:03.108Z,4.90
2023-04-19T22:25:30.373Z,4.90
2023-04-19T22:27:57.483Z,4.90
2023-04-19T22:30:24.551Z,4.90
2023-04-19T22:32:51.897Z,4.90
2023-04-19T22:35:20.105Z,4.80
2023-04-19T22:37:49.280Z,4.90
2023-04-19T22:40:16.414Z,4.90
2023-04-19T22:42:44.628Z,4.90
2023-04-19T22:45:11.746Z,4.90
2023-04-19T22:47:38.991Z,4.80
2023-04-19T22:50:06.534Z,4.90
2023-04-19T22:52:35.180Z,4.90
2023-04-19T22:55:02.281Z,4.90
2023-04-19T22:57:29.383Z,4.90
2023-04-19T22:59:56.487Z,4.90
2023-04-19T23:02:23.696Z,4.90
2023-04-19T23:04:50.841Z,4.90
2023-04-19T23:07:19.952Z,4.90
2023-04-19T23:09:47.098Z,4.90
2023-04-19T23:12:15.725Z,4.90
2023-04-19T23:14:42.878Z,4.90
2023-04-19T23:17:10.305Z,4.90
2023-04-19T23:19:38.717Z,4.90
2023-04-19T23:22:05.840Z,4.90
2023-04-19T23:24:33.020Z,4.90
2023-04-19T23:27:01.824Z,4.90
2023-04-19T23:29:29.099Z,4.80
2023-04-19T23:31:56.201Z,4.90
2023-04-19T23:34:23.393Z,4.80
2023-04-19T23:36:50.834Z,4.90
2023-04-19T23:39:18.321Z,4.90
2023-04-19T23:41:46.025Z,4.90
2023-04-19T23:44:13.123Z,4.90
2023-04-19T23:46:40.698Z,4.90
2023-04-19T23:49:08.688Z,4.90
2023-04-19T23:51:36.385Z,4.90
2023-04-19T23:54:03.630Z,4.90
2023-04-19T23:56:30.705Z,4.90
2023-04-19T23:58:57.913Z,4.90
